TimeCDT,TemperatureF,Dew PointF,Humidity,Sea Level PressureIn,VisibilityMPH,Wind Direction,Wind SpeedMPH,Gust SpeedMPH,PrecipitationIn,Events,Conditions,WindDirDegrees,DateUTC
1:53 AM,70.0,64.9,84,29.97,10.0,South,12.7,-,N/A,,Clear,170,2012-10-23 06:53:00
2:53 AM,69.1,64.9,87,29.97,10.0,South,9.2,-,N/A,,Clear,170,2012-10-23 07:53:00
3:45 AM,69.8,64.4,83,29.99,10.0,South,6.9,-,N/A,,Mostly Cloudy,180,2012-10-23 08:45:00
3:53 AM,69.1,64.9,87,29.97,10.0,South,8.1,-,N/A,,Mostly Cloudy,170,2012-10-23 08:53:00
4:09 AM,68.0,64.4,88,29.98,10.0,South,10.4,-,N/A,,Scattered Clouds,170,2012-10-23 09:09:00
4:53 AM,68.0,64.9,90,29.97,10.0,South,8.1,-,N/A,,Partly Cloudy,180,2012-10-23 09:53:00
5:53 AM,66.9,64.9,93,29.97,9.0,South,8.1,-,N/A,,Scattered Clouds,170,2012-10-23 10:53:00
6:43 AM,66.2,64.4,94,30.02,8.0,SW,3.5,-,N/A,,Mostly Cloudy,220,2012-10-23 11:43:00
6:53 AM,66.9,64.9,93,30.00,8.0,SSW,4.6,-,N/A,,Overcast,200,2012-10-23 11:53:00
7:53 AM,66.9,64.9,93,30.02,6.0,SSW,4.6,-,N/A,,Overcast,200,2012-10-23 12:53:00
8:53 AM,68.0,66.0,93,30.03,6.0,SSE,8.1,-,N/A,,Overcast,160,2012-10-23 13:53:00
9:53 AM,69.1,66.0,90,30.03,7.0,South,9.2,-,N/A,,Overcast,170,2012-10-23 14:53:00
10:53 AM,73.0,66.0,79,30.03,10.0,South,11.5,-,N/A,,Overcast,180,2012-10-23 15:53:00
11:40 AM,75.2,66.2,73,30.04,10.0,South,17.3,21.9,N/A,,Scattered Clouds,180,2012-10-23 16:40:00
12:44 PM,78.8,66.2,65,30.02,10.0,South,12.7,-,N/A,,Mostly Cloudy,190,2012-10-23 17:44:00
12:53 PM,78.1,64.9,64,29.99,10.0,SSW,13.8,19.6,N/A,,Mostly Cloudy,200,2012-10-23 17:53:00
1:22 PM,80.6,64.4,58,30.00,10.0,South,13.8,-,N/A,,Scattered Clouds,180,2012-10-23 18:22:00
1:53 PM,81.0,64.0,56,29.97,10.0,South,12.7,-,N/A,,Scattered Clouds,180,2012-10-23 18:53:00
2:53 PM,82.0,62.1,51,29.95,10.0,South,11.5,-,N/A,,Partly Cloudy,190,2012-10-23 19:53:00
3:53 PM,82.9,61.0,47,29.94,10.0,SSW,13.8,-,N/A,,Partly Cloudy,200,2012-10-23 20:53:00
4:53 PM,82.0,62.1,51,29.94,10.0,South,11.5,-,N/A,,Partly Cloudy,180,2012-10-23 21:53:00
5:53 PM,81.0,62.1,52,29.93,10.0,South,6.9,-,N/A,,Clear,170,2012-10-23 22:53:00
6:53 PM,75.0,63.0,66,29.94,10.0,SSE,4.6,-,N/A,,Clear,160,2012-10-23 23:53:00
7:53 PM,71.1,63.0,75,29.96,10.0,SSE,5.8,-,N/A,,Clear,150,2012-10-24 00:53:00
8:53 PM,72.0,64.0,76,29.96,10.0,SSE,8.1,-,N/A,,Clear,150,2012-10-24 01:53:00
9:53 PM,72.0,64.0,76,29.96,10.0,SSE,8.1,-,N/A,,Clear,150,2012-10-24 02:53:00
10:53 PM,72.0,63.0,73,29.96,10.0,SSE,12.7,-,N/A,,Clear,150,2012-10-24 03:53:00
11:53 PM,71.1,62.1,73,29.95,10.0,SSE,6.9,-,N/A,,Clear,160,2012-10-24 04:53:00